Airfield :
LOGIN :

Register | Disclaimer

   EN    FR    IT 

 










Legend :    VFR   Marginal VFR   IFR   Intensive IFR   Very Intensive IFR
Visi :
Ceiling :
>= 8 km
>= 3000ft
5 to 8 km
1000 to 3000 ft
1500m to 5 km
500 to 1000 ft
800 to 1500m
200 to 500 ft
< 800m
< 200 ft
Symbols :   Thunderstorms  Fog  Heavy snow  Heavy precipitations  Wind > 20 kt
SIGMETs :     Misc.  Thunderstorms  Icing  Turbulence  Mountain Waves  Volcanic Ashes







- Airport Elevation : 274 ft
- IATA code : PUY


LDPL - Pula

CURRENT METAR :
  • 111400Z 03003KT 270V070 CAVOK 11/M03 Q1017 NOSIG

EXPIRED METARs :
  • 111330Z VRB02KT CAVOK 12/M04 Q1017 NOSIG
  • 111300Z 22004KT 150V250 CAVOK 12/M04 Q1017 NOSIG
  • 111230Z 22004KT 180V280 CAVOK 12/M05 Q1017 NOSIG
  • 111200Z 24005KT 200V270 CAVOK 12/M03 Q1017 NOSIG
  • 111130Z 22003KT 170V320 CAVOK 12/M04 Q1017 NOSIG

TAF TAF LDPL
Valid from the 11 at 12:00 until the 12 at 12:00 UTC


111125Z 1112/1212 03006KT 9999 FEW040 TX12/1112Z TNM01/1206Z
PROB30
TEMPO 1112/1116 32008KT
No reported NOTAMs for that airfield.



MET'MAP, your aeronautical weather chart ! - Copyright ORBIFLY December 2007 - Disclaimer

ORBIFLY MET'MAP TEAM :

Programming & Development : Alexandra Zaïnal
Concept & Development : Baudouin d'Aumeries
Co-Development & Prog : Marc-Olivier Méhu
Technical & hardware support : Manuel Goepfert

Contact : metmap@orbifly.com




SOURCES & CREDITS :

   NOAA